Time;durP1;ratioP1;P1;durP2;ratioP2;P2;SDS_P1;SDS_P2;PMS_P1;PMS_P2;Temp;Humidity;BMP_temperature;BMP_pressure;BME280_temperature;BME280_humidity;BME280_pressure;Samples;Min_cycle;Max_cycle;Signal;HPM_P1;HPM_P2
2023/06/23 00:00:28;;;;;;;6.43;4.30;;;19.80;1.00;;;;;;5062973;28;20176;-79
2023/06/23 00:02:54;;;;;;;4.40;4.00;;;19.70;1.00;;;;;;5061568;28;20180;-79
2023/06/23 00:08:42;;;;;;;6.37;4.10;;;19.70;1.00;;;;;;5060360;28;20924;-79
2023/06/23 00:11:13;;;;;;;8.10;4.23;;;19.60;1.00;;;;;;5060272;28;20393;-79
2023/06/23 00:14:18;;;;;;;7.30;3.97;;;19.70;1.00;;;;;;5055902;28;20185;-79
2023/06/23 00:17:24;;;;;;;4.27;3.87;;;19.60;1.00;;;;;;5072758;28;20509;-80
2023/06/23 00:19:50;;;;;;;5.53;4.30;;;19.50;1.00;;;;;;5076156;28;20410;-79
2023/06/23 00:25:37;;;;;;;6.20;4.73;;;19.40;1.00;;;;;;5056211;28;20546;-74
2023/06/23 00:28:03;;;;;;;6.37;4.53;;;19.40;1.00;;;;;;5055899;28;20421;-74
2023/06/23 00:30:29;;;;;;;5.63;3.97;;;19.50;1.00;;;;;;5055616;28;20225;-74
2023/06/23 00:32:54;;;;;;;4.90;4.00;;;19.40;1.00;;;;;;5056090;28;20207;-74
2023/06/23 00:35:22;;;;;;;8.50;4.17;;;19.40;1.00;;;;;;5054804;28;20626;-74
2023/06/23 00:37:48;;;;;;;7.13;4.17;;;19.40;1.00;;;;;;5055477;28;20698;-74
2023/06/23 00:40:22;;;;;;;3.27;3.00;;;19.30;1.00;;;;;;5056259;28;20462;-74
2023/06/23 00:42:52;;;;;;;4.87;3.97;;;19.40;1.00;;;;;;5051786;28;20469;-74
2023/06/23 00:45:18;;;;;;;3.67;3.30;;;19.40;1.00;;;;;;5054213;28;20437;-74
2023/06/23 00:47:45;;;;;;;6.20;4.27;;;19.40;1.00;;;;;;5055112;28;20426;-74
2023/06/23 00:50:18;;;;;;;4.37;3.97;;;19.30;1.00;;;;;;5057207;28;20407;-75
2023/06/23 00:52:51;;;;;;;6.60;3.33;;;19.30;1.00;;;;;;5066536;28;21029;-74
2023/06/23 00:55:28;;;;;;;5.50;3.50;;;19.30;1.00;;;;;;5072857;28;20402;-75
2023/06/23 00:57:56;;;;;;;4.70;3.57;;;19.30;1.00;;;;;;5059891;28;20445;-74
2023/06/23 01:00:24;;;;;;;4.43;3.50;;;19.30;1.00;;;;;;5067445;28;20406;-74
2023/06/23 01:02:59;;;;;;;5.03;3.77;;;19.30;1.00;;;;;;5055477;28;20407;-74
2023/06/23 01:05:36;;;;;;;9.03;4.10;;;19.30;1.00;;;;;;5055446;28;20398;-74
2023/06/23 01:08:20;;;;;;;5.70;3.50;;;19.30;1.00;;;;;;5042654;28;20423;-74
2023/06/23 01:10:53;;;;;;;4.33;3.80;;;19.20;1.00;;;;;;5075075;28;20395;-74
2023/06/23 01:13:32;;;;;;;4.67;4.00;;;19.20;1.00;;;;;;5054214;28;20446;-74
2023/06/23 01:16:07;;;;;;;6.37;4.30;;;19.20;1.00;;;;;;5068270;28;20405;-74
2023/06/23 01:18:47;;;;;;;6.30;4.13;;;19.20;1.00;;;;;;5035250;28;20743;-74
2023/06/23 01:21:17;;;;;;;5.00;3.47;;;19.20;1.00;;;;;;5070310;28;20495;-74
2023/06/23 01:24:04;;;;;;;4.83;4.00;;;19.20;1.00;;;;;;5057039;28;20414;-74
2023/06/23 01:26:49;;;;;;;4.73;3.67;;;19.30;1.00;;;;;;5053295;28;20405;-74
2023/06/23 01:29:23;;;;;;;5.80;3.80;;;19.30;1.00;;;;;;5068151;28;20429;-75
2023/06/23 01:32:00;;;;;;;7.00;3.83;;;19.30;1.00;;;;;;5066161;28;20397;-74
2023/06/23 01:34:50;;;;;;;5.83;4.10;;;19.30;1.00;;;;;;5073506;28;20448;-75
2023/06/23 01:37:22;;;;;;;4.67;4.00;;;19.30;1.00;;;;;;5057947;28;20450;-74
2023/06/23 01:39:56;;;;;;;4.90;3.90;;;19.30;1.00;;;;;;5054796;28;20391;-75
2023/06/23 01:42:41;;;;;;;4.67;3.93;;;19.30;1.00;;;;;;5054595;28;20438;-80
2023/06/23 01:45:48;;;;;;;6.83;4.30;;;19.30;1.00;;;;;;5054722;28;20414;-79
2023/06/23 01:48:20;;;;;;;7.00;4.23;;;19.40;1.00;;;;;;5054618;28;20406;-79
2023/06/23 01:50:50;;;;;;;4.63;3.87;;;19.50;1.00;;;;;;5047138;28;20889;-79
2023/06/23 01:56:40;;;;;;;10.53;4.20;;;19.50;1.00;;;;;;5057739;28;20976;-75
2023/06/23 01:59:10;;;;;;;5.10;4.60;;;19.50;1.00;;;;;;5055320;28;20429;-74
2023/06/23 02:01:36;;;;;;;4.83;4.13;;;19.60;1.00;;;;;;5058355;28;20407;-74
2023/06/23 02:04:04;;;;;;;6.33;4.87;;;19.60;1.00;;;;;;5059425;28;20413;-74
2023/06/23 02:06:35;;;;;;;5.57;4.70;;;19.60;1.00;;;;;;5063195;28;20896;-74
2023/06/23 02:09:07;;;;;;;5.50;4.43;;;19.50;1.00;;;;;;5057782;28;20425;-74
2023/06/23 02:11:37;;;;;;;8.93;4.87;;;19.50;1.00;;;;;;5054246;28;20429;-79
2023/06/23 02:14:19;;;;;;;5.90;5.00;;;19.60;1.00;;;;;;5054503;28;20446;-79
2023/06/23 02:17:10;;;;;;;4.87;4.13;;;19.60;1.00;;;;;;5061605;28;20414;-79
2023/06/23 02:19:51;;;;;;;5.70;4.23;;;19.60;1.00;;;;;;5059070;28;20426;-79
2023/06/23 02:25:39;;;;;;;5.57;4.70;;;19.60;1.00;;;;;;5033967;28;20407;-80
2023/06/23 02:28:30;;;;;;;5.80;4.70;;;19.60;1.00;;;;;;5049131;28;20405;-80
2023/06/23 02:31:13;;;;;;;5.63;4.90;;;19.60;1.00;;;;;;5056003;28;20395;-80
2023/06/23 02:33:42;;;;;;;6.50;4.87;;;19.60;1.00;;;;;;5042408;28;20475;-80
2023/06/23 02:36:31;;;;;;;6.13;4.97;;;19.60;1.00;;;;;;5058133;28;20917;-79
2023/06/23 02:39:19;;;;;;;5.97;5.00;;;19.60;1.00;;;;;;5070263;28;20403;-80
2023/06/23 02:42:03;;;;;;;5.23;4.27;;;19.70;1.00;;;;;;5054147;28;20489;-79
2023/06/23 02:45:00;;;;;;;873.43;495.57;;;19.70;1.00;;;;;;5053451;28;20395;-78
2023/06/23 02:47:49;;;;;;;5.93;4.53;;;19.70;1.00;;;;;;5053569;28;20415;-79
2023/06/23 02:50:30;;;;;;;6.77;5.27;;;19.70;1.00;;;;;;5053589;28;20400;-79
2023/06/23 02:53:08;;;;;;;6.83;5.43;;;19.70;1.00;;;;;;5055370;28;20451;-79
2023/06/23 02:56:04;;;;;;;6.23;5.27;;;19.70;1.00;;;;;;5033561;28;20423;-79
2023/06/23 02:58:31;;;;;;;8.07;5.57;;;19.70;1.00;;;;;;5054512;28;20442;-73
2023/06/23 03:01:01;;;;;;;8.93;4.73;;;19.70;1.00;;;;;;5062860;28;20793;-73
2023/06/23 03:03:28;;;;;;;12.80;5.50;;;19.80;1.00;;;;;;5053433;28;20441;-74
2023/06/23 03:05:56;;;;;;;5.80;5.20;;;19.70;1.00;;;;;;5054408;28;20462;-74
2023/06/23 03:08:24;;;;;;;10.33;5.40;;;19.80;1.00;;;;;;5071059;28;20418;-73
2023/06/23 03:10:51;;;;;;;7.13;5.53;;;19.70;1.00;;;;;;5061306;28;20451;-73
2023/06/23 03:13:16;;;;;;;7.80;5.33;;;19.70;1.00;;;;;;5064643;28;20452;-74
2023/06/23 03:15:43;;;;;;;151.93;96.37;;;19.70;1.00;;;;;;5068431;28;20456;-73
2023/06/23 03:18:15;;;;;;;5.87;4.87;;;19.70;1.00;;;;;;5071962;28;20266;-73
2023/06/23 03:20:47;;;;;;;34.97;22.20;;;19.70;1.00;;;;;;5063827;28;20440;-72
2023/06/23 03:23:14;;;;;;;6.47;5.37;;;19.60;1.00;;;;;;5050505;28;20446;-73
2023/06/23 03:25:41;;;;;;;228.90;159.77;;;19.70;1.00;;;;;;5051900;28;20882;-72
2023/06/23 03:28:12;;;;;;;7.37;5.03;;;19.70;1.00;;;;;;5055786;28;20439;-73
2023/06/23 03:31:02;;;;;;;15.33;11.23;;;19.70;1.00;;;;;;5053739;28;20419;-73
2023/06/23 03:33:34;;;;;;;7.17;5.10;;;19.80;1.00;;;;;;5043044;28;20451;-75
2023/06/23 03:36:14;;;;;;;21.97;16.90;;;19.60;1.00;;;;;;5066793;28;20794;-72
2023/06/23 03:38:48;;;;;;;9.27;6.90;;;19.60;1.00;;;;;;5066330;28;20425;-74
2023/06/23 03:41:14;;;;;;;477.23;288.73;;;19.70;1.00;;;;;;5060446;28;20468;-73
2023/06/23 03:44:20;;;;;;;9.67;5.53;;;19.70;1.00;;;;;;5062630;28;20471;-79
2023/06/23 03:47:00;;;;;;;76.20;53.07;;;19.70;1.00;;;;;;5056489;28;20426;-79
2023/06/23 03:49:44;;;;;;;11.73;10.53;;;19.70;1.00;;;;;;5056705;28;20372;-79
2023/06/23 03:52:27;;;;;;;6.63;5.17;;;19.60;1.00;;;;;;5053806;28;20437;-79
2023/06/23 03:54:54;;;;;;;6.03;5.07;;;19.60;1.00;;;;;;5062924;28;20415;-78
2023/06/23 03:57:25;;;;;;;7.17;5.60;;;19.60;1.00;;;;;;5072400;28;20457;-73
2023/06/23 03:59:52;;;;;;;7.53;5.93;;;19.60;1.00;;;;;;5055940;28;20483;-74
2023/06/23 04:02:20;;;;;;;5.77;5.07;;;19.60;1.00;;;;;;5054272;28;20431;-72
2023/06/23 04:04:52;;;;;;;10.10;6.07;;;19.70;1.00;;;;;;5058183;28;20484;-73
2023/06/23 04:07:22;;;;;;;9.43;5.43;;;19.60;1.00;;;;;;5065026;28;20485;-74
2023/06/23 04:09:50;;;;;;;28.63;17.17;;;19.60;1.00;;;;;;5060036;28;20436;-73
2023/06/23 04:12:18;;;;;;;6.00;5.40;;;19.70;1.00;;;;;;5050110;28;20435;-78
2023/06/23 04:15:30;;;;;;;312.33;205.73;;;19.60;1.00;;;;;;5056060;28;20456;-79
2023/06/23 04:18:10;;;;;;;10.00;5.37;;;19.50;1.00;;;;;;5056141;28;20440;-79
2023/06/23 04:20:44;;;;;;;9.50;5.60;;;19.60;1.00;;;;;;5059301;28;20405;-78
2023/06/23 04:23:20;;;;;;;6.50;5.00;;;19.60;1.00;;;;;;5056605;28;20483;-79
2023/06/23 04:25:51;;;;;;;5.80;5.20;;;19.60;1.00;;;;;;5070018;28;20420;-80
2023/06/23 04:28:21;;;;;;;8.07;5.13;;;19.50;1.00;;;;;;5072747;28;20919;-73
2023/06/23 04:30:48;;;;;;;6.93;5.10;;;19.40;1.00;;;;;;5062167;28;20420;-72
2023/06/23 04:36:58;;;;;;;11.40;4.90;;;19.50;1.00;;;;;;5056677;28;20542;-87
2023/06/23 04:43:09;;;;;;;5.90;5.13;;;19.50;1.00;;;;;;5043424;28;20441;-88
2023/06/23 04:45:41;;;;;;;7.50;5.20;;;19.50;1.00;;;;;;5054325;28;20401;-89
2023/06/23 04:52:24;;;;;;;5.67;5.17;;;19.50;1.00;;;;;;5055943;28;20881;-88
2023/06/23 04:58:15;;;;;;;7.33;4.87;;;19.40;1.00;;;;;;5065863;28;20444;-89
2023/06/23 05:01:30;;;;;;;7.50;5.63;;;19.40;1.00;;;;;;5066096;28;20595;-89
2023/06/23 05:07:19;;;;;;;6.83;5.10;;;19.30;1.00;;;;;;5060618;28;20418;-89
2023/06/23 05:10:19;;;;;;;4.93;4.50;;;19.30;1.00;;;;;;5074990;28;20411;-88
2023/06/23 05:12:47;;;;;;;7.10;4.50;;;19.40;1.00;;;;;;5059267;28;20436;-89
2023/06/23 05:15:26;;;;;;;8.70;5.07;;;19.30;1.00;;;;;;5063747;28;20440;-86
2023/06/23 05:18:42;;;;;;;7.27;5.40;;;19.30;1.00;;;;;;5061908;28;20427;-88
2023/06/23 05:21:27;;;;;;;5.47;4.60;;;19.30;1.00;;;;;;5061974;28;20417;-88
2023/06/23 05:24:13;;;;;;;7.80;4.80;;;19.40;1.00;;;;;;5061178;28;20488;-88
2023/06/23 05:30:03;;;;;;;5.93;4.50;;;19.40;1.00;;;;;;5055042;28;20435;-83
2023/06/23 05:32:32;;;;;;;5.23;4.73;;;19.40;1.00;;;;;;5052612;28;20855;-82
2023/06/23 05:38:27;;;;;;;8.57;5.80;;;19.30;1.00;;;;;;5050675;28;20428;-83
2023/06/23 05:41:14;;;;;;;5.97;5.10;;;19.30;1.00;;;;;;5054695;28;20431;-82
2023/06/23 06:00:35;;;;;;;9.13;5.90;;;19.40;1.00;;;;;;5048558;28;20436;-88
2023/06/23 06:03:35;;;;;;;8.67;5.93;;;19.40;1.00;;;;;;5074019;28;20463;-88
2023/06/23 06:06:25;;;;;;;6.33;5.73;;;19.40;1.00;;;;;;5067052;28;20452;-88
2023/06/23 06:09:13;;;;;;;13.07;6.87;;;19.40;1.00;;;;;;5046912;28;20464;-88
2023/06/23 06:15:29;;;;;;;8.20;6.20;;;19.80;1.00;;;;;;5074297;28;20417;-88
2023/06/23 06:31:23;;;;;;;11.00;5.60;;;20.30;1.00;;;;;;5048331;28;20947;-82
2023/06/23 06:34:14;;;;;;;9.43;6.03;;;20.30;1.00;;;;;;5057142;28;20455;-83
2023/06/23 06:36:41;;;;;;;6.87;5.60;;;20.20;1.00;;;;;;5054949;28;20459;-83
2023/06/23 06:39:14;;;;;;;6.30;5.37;;;20.20;1.00;;;;;;5052710;28;20427;-83
2023/06/23 06:42:31;;;;;;;6.07;5.33;;;20.00;1.00;;;;;;5055869;28;20428;-85
2023/06/23 06:45:07;;;;;;;6.10;5.50;;;20.00;1.00;;;;;;5069430;28;20438;-82
2023/06/23 06:48:18;;;;;;;9.33;5.87;;;20.00;1.00;;;;;;5065665;28;20430;-81
2023/06/23 06:50:44;;;;;;;5.37;4.73;;;20.20;1.00;;;;;;5055342;28;20430;-82
2023/06/23 06:53:11;;;;;;;12.10;5.93;;;20.40;1.00;;;;;;5034010;28;20459;-82
2023/06/23 06:55:38;;;;;;;8.67;5.30;;;20.40;1.00;;;;;;5055598;28;20422;-82
2023/06/23 06:58:07;;;;;;;7.67;5.60;;;20.40;1.00;;;;;;5052207;28;20431;-82
2023/06/23 07:00:43;;;;;;;6.77;5.60;;;20.60;1.00;;;;;;5039538;28;20485;-82
2023/06/23 07:03:26;;;;;;;7.53;5.60;;;20.60;1.00;;;;;;5053599;28;20430;-82
2023/06/23 07:06:13;;;;;;;9.33;6.00;;;20.90;1.00;;;;;;5067817;28;20430;-82
2023/06/23 07:08:40;;;;;;;6.30;5.63;;;21.10;1.00;;;;;;5040927;28;20419;-82
2023/06/23 07:11:07;;;;;;;7.60;5.70;;;21.20;1.00;;;;;;5060528;28;20420;-83
2023/06/23 07:16:55;;;;;;;8.97;5.33;;;21.30;1.00;;;;;;5051385;28;20402;-83
2023/06/23 07:19:54;;;;;;;8.93;6.10;;;21.30;1.00;;;;;;5056259;28;20475;-84
2023/06/23 07:22:46;;;;;;;7.40;5.23;;;21.80;1.00;;;;;;5056880;28;20508;-84
2023/06/23 07:25:13;;;;;;;6.80;6.00;;;21.80;1.00;;;;;;5062044;28;20440;-83
2023/06/23 07:27:49;;;;;;;6.80;5.47;;;22.00;1.00;;;;;;5067346;28;20475;-83
2023/06/23 07:37:12;;;;;;;7.00;5.70;;;22.60;1.00;;;;;;5051551;28;20441;-82
2023/06/23 07:39:49;;;;;;;6.70;5.63;;;22.80;1.00;;;;;;5065991;28;21090;-80
2023/06/23 07:42:15;;;;;;;7.30;5.70;;;23.00;1.00;;;;;;5065950;28;20469;-81
2023/06/23 07:44:55;;;;;;;6.30;5.60;;;23.00;1.00;;;;;;5073203;28;20449;-83
2023/06/23 07:47:38;;;;;;;8.57;5.70;;;22.90;1.00;;;;;;5077145;28;20181;-83
2023/06/23 07:50:13;;;;;;;10.80;5.80;;;22.90;1.00;;;;;;5066774;28;20842;-83
2023/06/23 07:52:51;;;;;;;6.33;5.30;;;23.10;1.00;;;;;;5057063;28;20478;-83
2023/06/23 07:55:42;;;;;;;8.20;5.17;;;22.80;1.00;;;;;;5072052;28;21023;-83
2023/06/23 08:01:30;;;;;;;7.17;5.30;;;22.90;1.00;;;;;;5054464;28;20525;-82
2023/06/23 08:04:24;;;;;;;7.47;5.47;;;23.00;1.00;;;;;;5058048;28;20908;-82
2023/06/23 08:07:01;;;;;;;10.80;5.70;;;23.20;1.00;;;;;;5076460;28;20204;-81
2023/06/23 08:12:48;;;;;;;9.67;5.83;;;23.20;1.00;;;;;;5068304;28;20458;-82
2023/06/23 08:15:14;;;;;;;10.83;5.97;;;23.20;1.00;;;;;;5058697;28;20423;-82
2023/06/23 08:18:00;;;;;;;12.37;6.00;;;23.00;1.00;;;;;;5065060;28;20510;-81
2023/06/23 08:24:06;;;;;;;7.43;5.63;;;22.80;1.00;;;;;;5066157;28;20451;-82
2023/06/23 08:26:32;;;;;;;9.13;5.80;;;22.90;1.00;;;;;;5056012;28;20466;-80
2023/06/23 08:28:58;;;;;;;9.13;6.03;;;23.10;1.00;;;;;;5074329;28;20454;-80
2023/06/23 08:31:24;;;;;;;7.93;5.93;;;23.30;1.00;;;;;;5073599;28;20201;-82
2023/06/23 08:33:55;;;;;;;6.57;5.60;;;23.30;1.00;;;;;;5054596;28;20199;-81
2023/06/23 08:37:06;;;;;;;9.13;6.00;;;23.30;1.00;;;;;;5067917;28;20185;-82
2023/06/23 08:39:49;;;;;;;8.03;5.90;;;23.30;1.00;;;;;;5079952;28;20431;-83
2023/06/23 08:42:43;;;;;;;391.77;308.73;;;23.20;1.00;;;;;;5066348;28;20510;-82
2023/06/23 08:45:11;;;;;;;8.33;5.70;;;23.20;1.00;;;;;;5057488;28;20542;-82
2023/06/23 08:47:47;;;;;;;7.20;5.37;;;23.60;1.00;;;;;;5073279;28;20969;-82
2023/06/23 08:50:25;;;;;;;30.10;17.23;;;23.70;1.00;;;;;;5063060;28;20414;-82
2023/06/23 08:52:58;;;;;;;5.53;5.00;;;23.90;1.00;;;;;;5055342;28;20578;-81
2023/06/23 08:55:43;;;;;;;7.37;5.80;;;23.90;1.00;;;;;;5064853;28;20432;-81
2023/06/23 08:58:55;;;;;;;685.63;452.33;;;23.80;1.00;;;;;;5050365;28;20486;-82
2023/06/23 09:01:31;;;;;;;7.47;5.70;;;23.90;1.00;;;;;;5053424;28;20946;-84
2023/06/23 09:04:01;;;;;;;7.20;6.03;;;23.90;1.00;;;;;;5071292;28;20457;-84
2023/06/23 09:06:37;;;;;;;7.67;5.70;;;23.90;1.00;;;;;;5064747;28;20528;-83
2023/06/23 09:09:13;;;;;;;7.40;5.67;;;23.90;1.00;;;;;;5057630;28;20883;-83
2023/06/23 09:11:49;;;;;;;5.80;5.20;;;24.20;1.00;;;;;;5062373;28;20524;-83
2023/06/23 09:14:37;;;;;;;7.77;5.57;;;24.40;1.00;;;;;;5063500;28;20448;-83
2023/06/23 09:17:26;;;;;;;5.87;5.00;;;24.30;1.00;;;;;;5043682;28;20424;-83
2023/06/23 09:26:42;;;;;;;6.53;5.00;;;24.10;1.00;;;;;;5069984;28;20411;-83
2023/06/23 09:29:23;;;;;;;10.80;4.93;;;24.00;1.00;;;;;;5055314;28;20402;-84
2023/06/23 09:32:03;;;;;;;6.63;5.40;;;24.10;1.00;;;;;;5049073;28;20425;-84
2023/06/23 09:35:00;;;;;;;6.40;5.23;;;24.10;1.00;;;;;;5041968;28;20451;-83
2023/06/23 09:37:49;;;;;;;8.57;5.20;;;23.90;1.00;;;;;;5058174;28;20418;-84
2023/06/23 09:40:34;;;;;;;6.80;5.30;;;23.90;1.00;;;;;;5059543;28;20434;-83
2023/06/23 09:43:15;;;;;;;7.70;5.67;;;23.80;1.00;;;;;;5033900;28;20442;-84
2023/06/23 09:45:44;;;;;;;19.50;5.43;;;24.20;1.00;;;;;;5044653;28;20916;-83
2023/06/23 09:48:51;;;;;;;100.77;77.30;;;24.30;1.00;;;;;;5063766;28;20429;-84
2023/06/23 09:51:19;;;;;;;8.43;5.23;;;24.50;1.00;;;;;;5034975;28;20732;-83
2023/06/23 09:58:00;;;;;;;14.73;5.17;;;24.80;1.00;;;;;;5051860;28;20423;-84
2023/06/23 10:01:12;;;;;;;10.27;5.77;;;25.10;1.00;;;;;;5053695;28;20510;-83
2023/06/23 10:03:54;;;;;;;6.73;5.03;;;25.30;1.00;;;;;;5049833;28;20944;-84
2023/06/23 10:06:34;;;;;;;7.13;5.20;;;25.30;1.00;;;;;;5077290;28;20794;-83
2023/06/23 10:09:30;;;;;;;5.30;4.77;;;25.20;1.00;;;;;;5061002;28;20468;-84
2023/06/23 10:11:56;;;;;;;7.87;4.70;;;25.20;1.00;;;;;;5072759;28;20436;-84
2023/06/23 10:14:25;;;;;;;7.37;5.23;;;25.30;1.00;;;;;;5059951;28;20547;-84
2023/06/23 10:20:12;;;;;;;8.63;5.40;;;25.70;1.00;;;;;;5065314;28;20432;-82
2023/06/23 10:22:44;;;;;;;8.57;5.27;;;26.00;1.00;;;;;;5060351;28;20912;-83
2023/06/23 10:25:13;;;;;;;10.83;5.50;;;26.10;1.00;;;;;;5052427;28;20236;-82
2023/06/23 10:27:51;;;;;;;6.20;4.70;;;25.90;1.00;;;;;;5052093;28;20440;-82
2023/06/23 10:34:10;;;;;;;6.20;5.60;;;25.30;1.00;;;;;;5035613;28;20455;-84
2023/06/23 10:36:41;;;;;;;10.73;5.60;;;25.00;1.00;;;;;;5065501;28;20782;-83
2023/06/23 10:39:10;;;;;;;9.33;5.80;;;24.80;1.00;;;;;;5070230;28;20424;-84
2023/06/23 10:41:40;;;;;;;5.77;4.80;;;24.90;1.00;;;;;;5072568;28;20737;-83
2023/06/23 10:44:25;;;;;;;4.70;4.30;;;25.00;1.00;;;;;;5054206;28;20462;-84
2023/06/23 10:47:18;;;;;;;5.83;5.17;;;25.00;1.00;;;;;;5065949;28;20449;-84
2023/06/23 10:50:08;;;;;;;6.97;4.60;;;25.00;1.00;;;;;;5065159;28;20482;-84
2023/06/23 10:53:21;;;;;;;6.90;4.27;;;25.10;1.00;;;;;;5049564;28;20520;-84
2023/06/23 10:55:55;;;;;;;4.67;4.00;;;25.40;1.00;;;;;;5056174;28;20423;-83
2023/06/23 10:58:26;;;;;;;6.50;4.50;;;25.80;1.00;;;;;;5067808;28;20440;-84
2023/06/23 11:01:07;;;;;;;4.73;3.90;;;26.00;1.00;;;;;;5053726;28;20391;-83
2023/06/23 11:03:38;;;;;;;12.60;4.90;;;25.80;1.00;;;;;;5056239;28;20980;-82
2023/06/23 11:06:09;;;;;;;5.10;4.60;;;25.80;1.00;;;;;;5046352;28;20434;-82
2023/06/23 11:08:55;;;;;;;6.37;4.60;;;25.60;1.00;;;;;;5052198;28;20399;-83
2023/06/23 11:15:05;;;;;;;7.23;4.40;;;24.70;1.00;;;;;;5055113;28;20471;-82
2023/06/23 11:17:48;;;;;;;5.40;4.60;;;24.60;1.00;;;;;;5061847;28;20417;-83
2023/06/23 11:20:32;;;;;;;6.97;4.83;;;24.60;1.00;;;;;;5053701;28;20417;-83
2023/06/23 11:23:08;;;;;;;9.43;5.40;;;24.60;1.00;;;;;;5046225;28;20455;-83
2023/06/23 11:25:48;;;;;;;5.90;5.00;;;24.60;1.00;;;;;;5051668;28;20422;-84
2023/06/23 11:28:25;;;;;;;7.20;5.27;;;24.60;1.00;;;;;;5069483;28;20441;-74
2023/06/23 11:31:20;;;;;;;8.83;5.00;;;25.10;1.00;;;;;;5053197;28;20730;-74
2023/06/23 11:33:55;;;;;;;7.33;4.57;;;24.90;1.00;;;;;;5062734;28;20458;-74
2023/06/23 11:36:23;;;;;;;5.23;4.73;;;24.70;1.00;;;;;;5064391;28;20509;-74
2023/06/23 11:38:50;;;;;;;7.43;4.10;;;24.70;1.00;;;;;;5061972;28;20434;-74
2023/06/23 11:41:27;;;;;;;6.50;3.80;;;24.50;1.00;;;;;;5055210;28;20818;-74
2023/06/23 11:44:03;;;;;;;5.50;4.00;;;24.40;1.00;;;;;;5043520;28;20455;-74
2023/06/23 11:46:33;;;;;;;8.43;4.00;;;24.50;1.00;;;;;;5053385;28;20943;-75
2023/06/23 11:49:10;;;;;;;6.20;3.93;;;24.80;1.00;;;;;;5065109;28;20424;-75
2023/06/23 11:51:37;;;;;;;9.30;4.30;;;25.30;1.00;;;;;;5053016;28;20418;-76
2023/06/23 11:54:13;;;;;;;4.93;4.10;;;25.40;1.00;;;;;;5035292;28;20501;-76
2023/06/23 11:57:16;;;;;;;5.30;4.40;;;25.40;1.00;;;;;;5033218;28;20902;-76
2023/06/23 11:59:43;;;;;;;4.20;3.80;;;25.40;1.00;;;;;;5032936;28;20397;-75
2023/06/23 12:02:08;;;;;;;5.70;3.50;;;25.90;1.00;;;;;;5056857;28;20943;-75
2023/06/23 12:04:37;;;;;;;3.97;3.50;;;26.10;1.00;;;;;;5040187;28;20516;-76
2023/06/23 12:07:13;;;;;;;11.33;6.33;;;26.50;1.00;;;;;;5054440;28;20186;-76
2023/06/23 12:09:42;;;;;;;4.57;3.07;;;26.90;1.00;;;;;;5076486;28;20390;-76
2023/06/23 12:12:14;;;;;;;6.93;3.37;;;27.70;1.00;;;;;;5049049;28;20520;-76
2023/06/23 12:14:49;;;;;;;3.23;2.90;;;27.60;1.00;;;;;;5052076;28;20449;-76
2023/06/23 12:17:25;;;;;;;3.30;2.77;;;27.60;1.00;;;;;;5076671;28;20394;-76
2023/06/23 12:20:01;;;;;;;4.50;3.07;;;27.60;1.00;;;;;;5076698;28;20393;-76
2023/06/23 12:22:49;;;;;;;9.57;3.50;;;27.70;1.00;;;;;;5059414;28;20810;-76
2023/06/23 12:25:54;;;;;;;4.20;3.10;;;27.40;1.00;;;;;;5057509;28;20951;-76
2023/06/23 12:29:15;;;;;;;3.80;3.17;;;27.40;1.00;;;;;;5062314;28;20512;-76
2023/06/23 12:31:53;;;;;;;6.30;3.63;;;27.50;1.00;;;;;;5015071;28;21050;-76
2023/06/23 12:34:19;;;;;;;4.80;3.13;;;27.60;1.00;;;;;;5024795;28;20460;-76
2023/06/23 12:36:49;;;;;;;9.63;3.20;;;27.70;1.00;;;;;;5016488;28;20983;-76
2023/06/23 12:39:21;;;;;;;3.63;2.90;;;27.70;1.00;;;;;;5024040;28;20776;-76
2023/06/23 12:42:19;;;;;;;3.37;3.07;;;27.80;1.00;;;;;;5014949;28;20431;-75
2023/06/23 12:44:45;;;;;;;8.90;4.70;;;28.10;1.00;;;;;;5020395;28;20417;-74
2023/06/23 12:47:13;;;;;;;3.20;2.50;;;28.10;1.00;;;;;;5020802;28;21038;-75
2023/06/23 12:49:39;;;;;;;2.40;2.17;;;28.10;1.00;;;;;;5020209;28;20224;-75
2023/06/23 12:52:10;;;;;;;2.70;2.50;;;28.10;1.00;;;;;;5020712;28;20980;-76
2023/06/23 12:54:38;;;;;;;2.97;2.67;;;28.20;1.00;;;;;;5029269;28;20489;-76
2023/06/23 12:57:13;;;;;;;3.20;2.50;;;28.30;1.00;;;;;;4996827;28;20544;-77
2023/06/23 12:59:38;;;;;;;2.80;2.60;;;28.30;1.00;;;;;;5005203;28;20435;-76
2023/06/23 13:02:04;;;;;;;9.63;4.10;;;28.20;1.00;;;;;;5018909;28;20445;-74
2023/06/23 13:04:30;;;;;;;3.10;2.90;;;28.40;1.00;;;;;;5027610;28;20220;-74
2023/06/23 13:07:01;;;;;;;6.93;3.27;;;28.70;1.00;;;;;;5063960;28;20218;-74
2023/06/23 13:09:26;;;;;;;4.37;3.60;;;28.60;1.00;;;;;;5063491;28;20186;-74
2023/06/23 13:11:52;;;;;;;3.67;3.33;;;28.70;1.00;;;;;;5062596;28;20943;-75
2023/06/23 13:14:19;;;;;;;3.43;2.90;;;28.80;1.00;;;;;;5041994;28;20198;-74
2023/06/23 13:16:49;;;;;;;4.23;2.87;;;29.00;1.00;;;;;;5045790;28;20172;-74
2023/06/23 13:19:25;;;;;;;6.37;2.80;;;28.80;1.00;;;;;;5047009;28;20475;-76
2023/06/23 13:22:01;;;;;;;4.00;3.07;;;29.00;1.00;;;;;;5046151;28;20804;-76
2023/06/23 13:24:26;;;;;;;4.07;3.07;;;28.80;1.00;;;;;;5062968;28;20915;-76
2023/06/23 13:27:05;;;;;;;23.80;5.20;;;28.50;1.00;;;;;;5054869;28;20424;-76
2023/06/23 13:29:37;;;;;;;8.30;3.27;;;28.80;1.00;;;;;;5068484;28;20516;-76
2023/06/23 13:32:06;;;;;;;3.17;2.87;;;28.80;1.00;;;;;;5058743;28;20448;-75
2023/06/23 13:34:37;;;;;;;24.27;4.30;;;28.90;1.00;;;;;;5061522;28;20445;-74
2023/06/23 13:37:07;;;;;;;3.60;3.07;;;28.80;1.00;;;;;;5075024;28;20400;-75
2023/06/23 13:39:38;;;;;;;3.47;3.03;;;29.10;1.00;;;;;;5070387;28;20428;-83
2023/06/23 13:42:07;;;;;;;3.33;2.40;;;29.10;1.00;;;;;;5038768;28;20426;-83
2023/06/23 13:44:37;;;;;;;2.77;2.57;;;29.10;1.00;;;;;;5069762;28;20445;-85
2023/06/23 13:47:19;;;;;;;2.80;2.33;;;28.50;1.00;;;;;;5064680;28;20467;-83
2023/06/23 13:57:18;;;;;;;3.00;2.23;;;28.20;1.00;;;;;;5045918;28;20416;-87
2023/06/23 14:03:24;;;;;;;5.03;3.17;;;27.80;1.00;;;;;;5053565;28;20480;-88
2023/06/23 14:09:15;;;;;;;5.90;2.93;;;28.50;1.00;;;;;;5060852;28;20418;-89
2023/06/23 14:11:44;;;;;;;4.10;2.60;;;28.40;1.00;;;;;;5054782;28;20439;-90
2023/06/23 14:14:42;;;;;;;2.93;2.60;;;28.80;1.00;;;;;;5065515;28;20461;-89
2023/06/23 14:20:37;;;;;;;6.23;2.60;;;29.20;1.00;;;;;;5053417;28;20415;-84
2023/06/23 14:23:19;;;;;;;4.73;2.57;;;29.20;1.00;;;;;;5061119;28;20766;-84
2023/06/23 14:25:49;;;;;;;2.60;2.40;;;29.30;1.00;;;;;;5047121;28;20440;-84
2023/06/23 14:28:19;;;;;;;2.87;2.53;;;29.10;1.00;;;;;;5060449;28;20567;-84
2023/06/23 14:31:02;;;;;;;5.00;2.77;;;29.00;1.00;;;;;;5064571;28;20520;-84
2023/06/23 14:33:44;;;;;;;3.00;2.23;;;28.80;1.00;;;;;;5057130;28;20826;-84
2023/06/23 14:36:49;;;;;;;7.97;2.40;;;29.00;1.00;;;;;;5057636;28;20424;-85
2023/06/23 14:39:25;;;;;;;4.63;2.33;;;29.20;1.00;;;;;;5057080;28;20919;-83
2023/06/23 14:42:01;;;;;;;2.87;2.60;;;29.40;1.00;;;;;;5066272;28;20437;-84
2023/06/23 14:44:42;;;;;;;10.13;2.60;;;29.40;1.00;;;;;;5035009;28;20575;-82
2023/06/23 14:47:25;;;;;;;8.03;2.80;;;29.80;1.00;;;;;;5036660;28;20412;-81
2023/06/23 14:53:43;;;;;;;6.63;2.67;;;30.40;1.00;;;;;;5012771;28;20524;-81
2023/06/23 14:59:30;;;;;;;91.40;7.80;;;30.60;1.00;;;;;;5024213;28;20774;-82
2023/06/23 15:02:18;;;;;;;28.87;3.73;;;30.70;1.00;;;;;;5037614;28;20423;-82
2023/06/23 15:05:07;;;;;;;4.90;2.70;;;30.80;1.00;;;;;;5013358;28;20190;-87
2023/06/23 15:11:42;;;;;;;4.90;2.93;;;30.80;1.00;;;;;;5026719;28;20415;-87
2023/06/23 15:17:31;;;;;;;2.30;2.00;;;32.20;1.00;;;;;;5017517;28;20450;-86
2023/06/23 15:20:19;;;;;;;3.00;2.50;;;32.20;1.00;;;;;;5033477;28;20485;-82
2023/06/23 15:22:49;;;;;;;82.10;8.30;;;32.10;1.00;;;;;;5009157;28;20455;-82
2023/06/23 15:25:25;;;;;;;6.23;2.23;;;32.10;1.00;;;;;;5016949;28;20428;-82
2023/06/23 15:28:01;;;;;;;5.60;2.70;;;31.80;1.00;;;;;;5002761;28;20417;-81
2023/06/23 15:30:43;;;;;;;4.80;2.80;;;31.50;1.00;;;;;;5006262;28;20908;-82
2023/06/23 15:33:30;;;;;;;3.87;2.93;;;31.10;1.00;;;;;;5006245;28;20413;-84
2023/06/23 15:36:25;;;;;;;2.63;2.30;;;30.20;1.00;;;;;;5017664;28;20416;-89
2023/06/23 15:42:37;;;;;;;6.13;2.77;;;30.80;1.00;;;;;;5010685;28;20407;-89
2023/06/23 15:48:25;;;;;;;25.37;19.87;;;32.60;1.00;;;;;;5000465;28;20430;-90
2023/06/23 15:51:30;;;;;;;9.23;6.63;;;34.60;1.00;;;;;;5021676;28;20456;-83
2023/06/23 15:54:19;;;;;;;8.70;3.27;;;35.80;1.00;;;;;;5021642;28;20415;-84
2023/06/23 15:57:22;;;;;;;2.50;2.30;;;36.50;1.00;;;;;;4996784;28;20785;-84
2023/06/23 15:59:47;;;;;;;4.60;2.53;;;35.90;1.00;;;;;;4977466;28;20390;-84
2023/06/23 16:02:31;;;;;;;2.97;2.73;;;34.50;1.00;;;;;;5021499;28;20470;-84
2023/06/23 16:05:25;;;;;;;26.47;23.77;;;33.10;1.00;;;;;;5003192;28;20182;-90
2023/06/23 16:08:01;;;;;;;3.30;2.87;;;32.40;1.00;;;;;;4996278;28;20425;-90
2023/06/23 16:10:27;;;;;;;5.93;4.90;;;31.50;1.00;;;;;;4999479;28;20416;-90
2023/06/23 16:16:31;;;;;;;17.87;3.97;;;30.30;1.00;;;;;;4998691;28;20416;-91
2023/06/23 16:19:07;;;;;;;5.10;3.23;;;29.00;1.00;;;;;;5016643;28;20432;-85
2023/06/23 16:25:49;;;;;;;5.07;2.90;;;28.20;1.00;;;;;;5016762;28;20423;-90
2023/06/23 16:28:54;;;;;;;5.33;3.00;;;28.00;1.00;;;;;;5000545;28;20465;-90